createdAt,value
2018-12-27T00:00:25.766Z,102338.59
2018-12-27T00:02:56.304Z,102339.47
2018-12-27T00:05:26.718Z,102339.03
2018-12-27T00:07:57.168Z,102338.97
2018-12-27T00:10:27.512Z,102341.66
2018-12-27T00:12:57.862Z,102338.84
2018-12-27T00:15:28.354Z,102345.80
2018-12-27T00:17:58.747Z,102348.87
2018-12-27T00:20:29.099Z,102350.66
2018-12-27T00:22:59.741Z,102344.95
2018-12-27T00:25:30.024Z,102347.05
2018-12-27T00:28:00.399Z,102344.23
2018-12-27T00:30:30.902Z,102346.20
2018-12-27T00:33:03.259Z,102342.31
2018-12-27T00:35:33.867Z,102333.86
2018-12-27T00:38:04.544Z,102332.31
2018-12-27T00:40:35.027Z,102329.59
2018-12-27T00:43:05.434Z,102322.91
2018-12-27T00:45:35.857Z,102325.33
2018-12-27T00:48:06.538Z,102329.37
2018-12-27T00:50:36.938Z,102326.52
2018-12-27T00:53:07.639Z,102323.10
2018-12-27T00:55:38.041Z,102325.11
2018-12-27T00:58:08.436Z,102313.77
2018-12-27T01:00:39.117Z,102320.06
2018-12-27T01:03:11.254Z,102312.22
2018-12-27T01:05:42.329Z,102313.13
2018-12-27T01:08:12.731Z,102301.82
2018-12-27T01:10:43.647Z,102312.88
2018-12-27T01:13:14.391Z,102303.29
2018-12-27T01:15:45.399Z,102297.24
2018-12-27T01:18:16.386Z,102298.63
2018-12-27T01:20:47.090Z,102296.87
2018-12-27T01:23:17.503Z,102302.10
2018-12-27T01:25:47.934Z,102304.55
2018-12-27T01:28:18.352Z,102299.16
2018-12-27T01:30:49.013Z,102300.78
2018-12-27T01:33:19.422Z,102300.09
2018-12-27T01:35:49.848Z,102297.97
2018-12-27T01:38:20.274Z,102295.67
2018-12-27T01:40:50.718Z,102303.39
2018-12-27T01:43:21.463Z,102298.25
2018-12-27T01:45:51.869Z,102289.38
2018-12-27T01:48:22.281Z,102286.93
2018-12-27T01:50:52.722Z,102287.21
2018-12-27T01:53:23.144Z,102290.91
2018-12-27T01:55:53.542Z,102282.07
2018-12-27T01:58:23.993Z,102289.59
2018-12-27T02:00:54.432Z,102279.88
2018-12-27T02:03:26.599Z,102278.22
2018-12-27T02:05:57.726Z,102278.25
2018-12-27T02:08:28.136Z,102273.86
2018-12-27T02:10:58.862Z,102276.02
2018-12-27T02:13:29.297Z,102274.77
2018-12-27T02:15:59.705Z,102266.68
2018-12-27T02:18:30.523Z,102270.63
2018-12-27T02:21:01.209Z,102267.05
2018-12-27T02:23:31.610Z,102268.05
2018-12-27T02:26:02.348Z,102261.98
2018-12-27T02:28:32.798Z,102259.06
2018-12-27T02:31:03.230Z,102255.84
2018-12-27T02:33:35.294Z,102254.64
2018-12-27T02:36:05.816Z,102250.34
2018-12-27T02:38:36.274Z,102252.08
2018-12-27T02:41:06.974Z,102257.58
2018-12-27T02:43:37.425Z,102257.25
2018-12-27T02:46:08.163Z,102255.98
2018-12-27T02:48:38.672Z,102254.14
2018-12-27T02:51:09.128Z,102255.46
2018-12-27T02:53:39.522Z,102252.08
2018-12-27T02:56:09.954Z,102244.05
2018-12-27T02:58:40.428Z,102246.20
2018-12-27T03:01:10.875Z,102233.33
2018-12-27T03:03:44.067Z,102241.94
2018-12-27T03:06:13.423Z,102245.07
2018-12-27T03:08:43.875Z,102234.26
2018-12-27T03:11:14.611Z,102234.20
2018-12-27T03:13:45.605Z,102233.77
2018-12-27T03:16:16.050Z,102239.95
2018-12-27T03:18:46.466Z,102233.90
2018-12-27T03:21:16.965Z,102229.14
2018-12-27T03:23:47.363Z,102224.47
2018-12-27T03:26:17.827Z,102222.80
2018-12-27T03:28:48.474Z,102213.19
2018-12-27T03:31:18.889Z,102213.45
2018-12-27T03:33:52.787Z,102208.21
2018-12-27T03:36:21.717Z,102206.39
2018-12-27T03:38:53.205Z,102206.43
2018-12-27T03:41:23.628Z,102208.05
2018-12-27T03:43:54.055Z,102200.53
2018-12-27T03:46:24.754Z,102198.59
2018-12-27T03:48:55.174Z,102191.73
2018-12-27T03:51:25.598Z,102188.35
2018-12-27T03:53:56.270Z,102192.90
2018-12-27T03:56:26.693Z,102194.47
2018-12-27T03:58:57.125Z,102190.61
2018-12-27T04:01:27.594Z,102187.82
2018-12-27T04:04:01.548Z,102188.17
2018-12-27T04:06:30.182Z,102185.07
2018-12-27T04:09:00.619Z,102178.55
2018-12-27T04:11:31.286Z,102179.98
2018-12-27T04:14:02.286Z,102175.33
2018-12-27T04:16:32.488Z,102172.54
2018-12-27T04:19:03.095Z,102175.48
2018-12-27T04:21:33.547Z,102179.84
2018-12-27T04:24:04.860Z,102171.63
2018-12-27T04:26:35.231Z,102172.10
2018-12-27T04:29:05.553Z,102175.39
2018-12-27T04:31:36.183Z,102179.43
2018-12-27T04:34:09.652Z,102178.58
2018-12-27T04:36:40.644Z,102174.30
2018-12-27T04:39:11.195Z,102171.73
2018-12-27T04:41:42.339Z,102174.80
2018-12-27T04:44:13.202Z,102174.45
2018-12-27T04:46:43.478Z,102172.37
2018-12-27T04:49:13.834Z,102170.69
2018-12-27T04:51:44.210Z,102175.23
2018-12-27T04:54:14.715Z,102170.06
2018-12-27T04:56:45.059Z,102170.09
2018-12-27T04:59:15.291Z,102172.13
2018-12-27T05:01:45.485Z,102170.06
2018-12-27T05:04:18.257Z,102166.09
2018-12-27T05:06:48.095Z,102163.92
2018-12-27T05:09:18.559Z,102163.45
2018-12-27T05:11:48.938Z,102157.16
2018-12-27T05:14:19.508Z,102160.17
2018-12-27T05:16:50.042Z,102162.64
2018-12-27T05:19:20.547Z,102159.17
2018-12-27T05:21:51.154Z,102156.76
2018-12-27T05:24:21.377Z,102160.02
2018-12-27T05:26:51.726Z,102157.41
2018-12-27T05:29:22.046Z,102159.48
2018-12-27T05:31:52.698Z,102162.17
2018-12-27T05:34:26.315Z,102161.27
2018-12-27T05:36:55.138Z,102165.24
2018-12-27T05:39:25.890Z,102163.15
2018-12-27T05:41:56.343Z,102167.50
2018-12-27T05:44:26.697Z,102168.22
2018-12-27T05:46:57.079Z,102167.94
2018-12-27T05:49:27.473Z,102174.35
2018-12-27T05:51:58.002Z,102166.68
2018-12-27T05:54:28.598Z,102174.38
2018-12-27T05:56:58.906Z,102174.59
2018-12-27T05:59:29.294Z,102177.56
2018-12-27T06:01:59.574Z,102177.39
2018-12-27T06:04:33.726Z,102175.23
2018-12-27T06:07:02.283Z,102175.16
2018-12-27T06:09:32.581Z,102178.48
2018-12-27T06:12:03.167Z,102177.06
2018-12-27T06:14:33.556Z,102172.80
2018-12-27T06:17:03.993Z,102177.97
2018-12-27T06:19:34.400Z,102171.90
2018-12-27T06:22:05.112Z,102169.98
2018-12-27T06:24:35.459Z,102178.59
2018-12-27T06:27:06.043Z,102171.53
2018-12-27T06:29:36.355Z,102171.77
2018-12-27T06:32:07.035Z,102172.25
2018-12-27T06:34:41.312Z,102174.34
2018-12-27T06:37:09.711Z,102171.80
2018-12-27T06:39:40.242Z,102168.16
2018-12-27T06:42:10.635Z,102171.77
2018-12-27T06:44:41.091Z,102167.79
2018-12-27T06:47:11.372Z,102165.97
2018-12-27T06:49:41.686Z,102168.33
2018-12-27T06:52:12.188Z,102167.38
2018-12-27T06:54:43.046Z,102168.30
2018-12-27T06:57:13.653Z,102165.36
2018-12-27T06:59:43.956Z,102168.44
2018-12-27T07:02:15.087Z,102168.77
2018-12-27T07:04:48.904Z,102169.17
2018-12-27T07:07:17.516Z,102174.98
2018-12-27T07:09:48.057Z,102172.92
2018-12-27T07:12:18.332Z,102173.53
2018-12-27T07:14:48.791Z,102167.05
2018-12-27T07:17:19.327Z,102169.17
2018-12-27T07:19:49.994Z,102171.37
2018-12-27T07:22:20.605Z,102169.48
2018-12-27T07:24:50.845Z,102172.69
2018-12-27T07:27:21.220Z,102168.19
2018-12-27T07:29:51.961Z,102169.17
2018-12-27T07:32:22.241Z,102169.88
2018-12-27T07:34:56.412Z,102171.03
2018-12-27T07:37:24.776Z,102173.66
2018-12-27T07:39:55.346Z,102180.86
2018-12-27T07:42:26.127Z,102175.92
2018-12-27T07:44:56.584Z,102174.34
2018-12-27T07:47:27.723Z,102171.73
2018-12-27T07:49:58.666Z,102166.13
2018-12-27T07:52:29.670Z,102162.81
2018-12-27T07:55:00.587Z,102167.67
2018-12-27T07:57:31.412Z,102173.41
2018-12-27T08:00:02.060Z,102175.00
2018-12-27T08:02:32.361Z,102181.89
2018-12-27T08:05:04.327Z,102178.10
2018-12-27T08:07:34.929Z,102174.38
2018-12-27T08:10:06.047Z,102174.64
2018-12-27T08:12:40.082Z,102178.33
2018-12-27T08:15:10.864Z,102177.67
2018-12-27T08:17:41.256Z,102177.30
2018-12-27T08:20:11.811Z,102173.54
2018-12-27T08:22:42.376Z,102172.22
2018-12-27T08:25:12.758Z,102170.61
2018-12-27T08:27:43.079Z,102165.23
2018-12-27T08:30:13.540Z,102166.94
2018-12-27T08:32:44.177Z,102172.65
2018-12-27T08:35:14.588Z,102166.87
2018-12-27T08:37:46.014Z,102169.53
2018-12-27T08:40:17.070Z,102164.24
2018-12-27T08:42:47.605Z,102167.62
2018-12-27T08:45:17.925Z,102164.80
2018-12-27T08:47:48.295Z,102158.69
2018-12-27T08:50:19.682Z,102154.41
2018-12-27T08:52:50.075Z,102146.88
2018-12-27T08:55:20.674Z,102150.34
2018-12-27T08:57:51.593Z,102150.78
2018-12-27T09:00:22.480Z,102141.44
2018-12-27T09:02:53.155Z,102148.03
2018-12-27T09:05:24.484Z,102139.55
2018-12-27T09:07:54.895Z,102140.56
2018-12-27T09:10:25.381Z,102136.64
2018-12-27T09:12:55.779Z,102143.36
2018-12-27T09:15:26.505Z,102138.27
2018-12-27T09:17:56.891Z,102139.31
2018-12-27T09:20:27.632Z,102138.52
2018-12-27T09:22:57.993Z,102133.06
2018-12-27T09:25:28.444Z,102127.63
2018-12-27T09:27:58.768Z,102128.41
2018-12-27T09:30:29.136Z,102130.78
2018-12-27T09:32:59.493Z,102126.44
2018-12-27T09:35:30.576Z,102125.14
2018-12-27T09:38:00.943Z,102130.41
2018-12-27T09:40:31.404Z,102130.33
2018-12-27T09:43:01.716Z,102135.41
2018-12-27T09:45:32.280Z,102135.13
2018-12-27T09:48:02.742Z,102131.81
2018-12-27T09:50:33.057Z,102133.25
2018-12-27T09:53:03.480Z,102133.98
2018-12-27T09:55:33.856Z,102137.53
2018-12-27T09:58:04.329Z,102136.30
2018-12-27T10:00:34.611Z,102132.34
2018-12-27T10:03:05.050Z,102124.92
2018-12-27T10:05:35.283Z,102116.38
2018-12-27T10:08:05.949Z,102117.23
2018-12-27T10:10:36.486Z,102116.00
2018-12-27T10:13:07.049Z,102116.32
2018-12-27T10:15:37.664Z,102125.93
2018-12-27T10:18:08.032Z,102120.14
2018-12-27T10:20:38.444Z,102115.20
2018-12-27T10:23:08.830Z,102100.34
2018-12-27T10:25:39.475Z,102101.46
2018-12-27T10:28:10.141Z,102095.89
2018-12-27T10:30:40.520Z,102101.53
2018-12-27T10:33:11.101Z,102104.87
2018-12-27T10:35:41.498Z,102098.78
2018-12-27T10:38:11.875Z,102099.89
2018-12-27T10:40:42.231Z,102104.09
2018-12-27T10:43:12.751Z,102098.06
2018-12-27T10:45:45.147Z,102103.39
2018-12-27T10:48:16.709Z,102094.37
2018-12-27T10:50:47.633Z,102091.68
2018-12-27T10:53:18.206Z,102081.52
2018-12-27T10:55:48.604Z,102080.53
2018-12-27T10:58:19.237Z,102071.70
2018-12-27T11:00:50.237Z,102079.45
2018-12-27T11:03:20.705Z,102077.89
2018-12-27T11:05:51.317Z,102076.08
2018-12-27T11:08:22.090Z,102072.56
2018-12-27T11:10:52.403Z,102063.72
2018-12-27T11:13:22.855Z,102061.31
2018-12-27T11:15:53.298Z,102052.95
2018-12-27T11:18:23.693Z,102056.45
2018-12-27T11:20:54.150Z,102053.90
2018-12-27T11:23:24.445Z,102044.91
2018-12-27T11:25:56.180Z,102041.86
2018-12-27T11:28:26.575Z,102026.87
2018-12-27T11:30:58.093Z,102026.00
2018-12-27T11:33:28.513Z,102030.13
2018-12-27T11:35:59.124Z,102022.84
2018-12-27T11:38:29.418Z,102015.02
2018-12-27T11:40:59.878Z,102005.16
2018-12-27T11:43:30.295Z,102004.14
2018-12-27T11:46:00.574Z,101994.94
2018-12-27T11:48:31.347Z,101989.80
2018-12-27T11:51:02.085Z,101984.64
2018-12-27T11:53:32.506Z,101979.02
2018-12-27T11:56:03.253Z,101976.59
2018-12-27T11:58:34.216Z,101976.01
2018-12-27T12:01:04.682Z,101977.28
2018-12-27T12:03:35.221Z,101978.01
2018-12-27T12:06:05.679Z,101974.64
2018-12-27T12:08:36.082Z,101969.56
2018-12-27T12:11:06.870Z,101963.76
2018-12-27T12:13:38.691Z,101963.59
2018-12-27T12:16:09.196Z,101958.09
2018-12-27T12:18:39.698Z,101954.19
2018-12-27T12:21:10.126Z,101955.41
2018-12-27T12:23:40.672Z,101952.94
2018-12-27T12:26:11.175Z,101957.78
2018-12-27T12:28:41.678Z,101962.97
2018-12-27T12:31:12.436Z,101962.09
2018-12-27T12:33:42.916Z,101961.27
2018-12-27T12:36:13.464Z,101971.63
2018-12-27T12:38:43.921Z,101966.75
2018-12-27T12:41:14.510Z,101967.18
2018-12-27T12:43:45.126Z,101981.01
2018-12-27T12:46:15.981Z,101980.88
2018-12-27T12:48:47.068Z,101991.73
2018-12-27T12:51:17.597Z,101990.02
2018-12-27T12:53:48.497Z,101987.86
2018-12-27T12:56:19.047Z,101987.77
2018-12-27T12:58:49.666Z,101983.84
2018-12-27T13:01:20.107Z,101982.13
2018-12-27T13:03:50.601Z,101987.25
2018-12-27T13:06:21.130Z,101985.63
2018-12-27T13:08:51.878Z,101982.58
2018-12-27T13:11:22.513Z,101994.55
2018-12-27T13:13:53.045Z,101988.50
2018-12-27T13:16:23.493Z,101984.61
2018-12-27T13:18:54.049Z,101987.45
2018-12-27T13:21:24.788Z,101986.70
2018-12-27T13:23:55.417Z,101986.83
2018-12-27T13:26:25.983Z,101983.77
2018-12-27T13:28:56.307Z,101985.45
2018-12-27T13:31:26.754Z,101982.84
2018-12-27T13:33:57.244Z,101979.44
2018-12-27T13:36:27.924Z,101979.84
2018-12-27T13:38:58.520Z,101980.28
2018-12-27T13:41:28.874Z,101983.72
2018-12-27T13:43:59.383Z,101977.64
2018-12-27T13:46:30.201Z,101982.37
2018-12-27T13:49:01.104Z,101985.80
2018-12-27T13:51:31.523Z,101984.51
2018-12-27T13:54:02.287Z,101987.09
2018-12-27T13:56:33.125Z,101988.92
2018-12-27T13:59:03.976Z,101982.79
2018-12-27T14:01:34.544Z,101985.41
2018-12-27T14:04:05.031Z,101982.80
2018-12-27T14:06:35.754Z,101972.41
2018-12-27T14:09:08.375Z,101971.52
2018-12-27T14:11:39.038Z,101979.70
2018-12-27T14:14:09.626Z,101970.73
2018-12-27T14:16:40.251Z,101974.16
2018-12-27T14:19:10.639Z,101973.65
2018-12-27T14:21:41.055Z,101964.17
2018-12-27T14:24:11.371Z,101975.75
2018-12-27T14:26:42.195Z,101978.76
2018-12-27T14:29:12.583Z,101971.32
2018-12-27T14:31:43.174Z,101977.85
2018-12-27T14:34:14.000Z,101974.33
2018-12-27T14:36:44.283Z,101973.88
2018-12-27T14:39:15.135Z,101973.94
2018-12-27T14:41:45.746Z,101977.33
2018-12-27T14:44:16.014Z,101976.42
2018-12-27T14:46:46.428Z,101976.88
2018-12-27T14:49:16.689Z,101983.86
2018-12-27T14:51:46.927Z,101989.80
2018-12-27T14:54:17.272Z,101986.30
2018-12-27T14:56:47.524Z,101990.59
2018-12-27T14:59:18.212Z,101981.17
2018-12-27T15:01:48.650Z,101981.14
2018-12-27T15:04:19.445Z,101983.64
2018-12-27T15:06:49.910Z,101981.44
2018-12-27T15:09:20.425Z,101977.56
2018-12-27T15:11:50.579Z,101976.69
2018-12-27T15:14:23.056Z,101972.81
2018-12-27T15:16:53.587Z,101970.18
2018-12-27T15:19:23.967Z,101973.19
2018-12-27T15:21:54.304Z,101963.64
2018-12-27T15:24:25.073Z,101970.93
2018-12-27T15:26:55.374Z,101969.09
2018-12-27T15:29:25.704Z,101971.21
2018-12-27T15:31:56.040Z,101970.76
2018-12-27T15:34:26.343Z,101971.12
2018-12-27T15:36:56.969Z,101968.03
2018-12-27T15:39:27.337Z,101967.56
2018-12-27T15:41:57.682Z,101964.47
2018-12-27T15:44:27.991Z,101964.84
2018-12-27T15:46:58.351Z,101966.07
2018-12-27T15:49:29.065Z,101977.19
2018-12-27T15:51:59.695Z,101971.91
2018-12-27T15:54:30.026Z,101972.73
2018-12-27T15:57:00.471Z,101973.05
2018-12-27T15:59:30.813Z,101975.16
2018-12-27T16:02:01.224Z,101973.77
2018-12-27T16:04:31.901Z,101970.29
2018-12-27T16:07:02.469Z,101967.70
2018-12-27T16:09:33.054Z,101967.19
2018-12-27T16:12:03.437Z,101969.83
2018-12-27T16:14:33.755Z,101973.33
2018-12-27T16:17:04.573Z,101973.70
2018-12-27T16:19:35.485Z,101969.42
2018-12-27T16:22:05.855Z,101970.69
2018-12-27T16:24:36.366Z,101976.69
2018-12-27T16:27:08.342Z,101981.01
2018-12-27T16:29:39.195Z,101985.25
2018-12-27T16:32:10.768Z,101979.66
2018-12-27T16:34:41.517Z,101980.50
2018-12-27T16:37:11.983Z,101986.88
2018-12-27T16:39:42.586Z,101983.36
2018-12-27T16:42:13.073Z,101980.72
2018-12-27T16:44:43.436Z,101976.78
2018-12-27T16:47:16.438Z,101977.17
2018-12-27T16:49:47.033Z,101976.66
2018-12-27T16:52:17.411Z,101973.66
2018-12-27T16:54:48.455Z,101982.22
2018-12-27T16:57:19.779Z,101985.20
2018-12-27T16:59:50.650Z,101984.77
2018-12-27T17:02:21.146Z,101985.17
2018-12-27T17:04:51.456Z,101983.90
2018-12-27T17:07:22.544Z,101979.22
2018-12-27T17:09:52.903Z,101972.31
2018-12-27T17:12:23.573Z,101972.78
2018-12-27T17:14:54.024Z,101966.33
2018-12-27T17:17:26.396Z,101963.81
2018-12-27T17:19:57.036Z,101973.30
2018-12-27T17:22:30.085Z,101961.77
2018-12-27T17:25:00.601Z,101960.44
2018-12-27T17:27:34.114Z,101965.59
2018-12-27T17:30:07.880Z,101960.44
2018-12-27T17:32:38.733Z,101968.17
2018-12-27T17:35:09.480Z,101972.03
2018-12-27T17:37:51.906Z,101971.16
2018-12-27T17:40:22.330Z,101972.42
2018-12-27T17:42:52.685Z,101965.50
2018-12-27T17:45:23.012Z,101974.94
2018-12-27T17:47:53.478Z,101969.45
2018-12-27T17:50:24.046Z,101960.88
2018-12-27T17:52:54.535Z,101961.77
2018-12-27T17:55:25.225Z,101961.36
2018-12-27T17:57:55.681Z,101965.13
2018-12-27T18:00:26.046Z,101961.38
2018-12-27T18:02:56.412Z,101960.38
2018-12-27T18:05:26.888Z,101963.02
2018-12-27T18:07:57.295Z,101957.75
2018-12-27T18:10:28.149Z,101965.95
2018-12-27T18:13:06.498Z,101963.48
2018-12-27T18:15:36.997Z,101966.53
2018-12-27T18:18:07.381Z,101965.96
2018-12-27T18:20:38.324Z,101964.67
2018-12-27T18:23:08.963Z,101972.39
2018-12-27T18:25:39.680Z,101967.59
2018-12-27T18:28:10.233Z,101977.84
2018-12-27T18:30:40.877Z,101979.90
2018-12-27T18:33:11.633Z,101975.63
2018-12-27T18:35:42.807Z,101978.36
2018-12-27T18:38:13.495Z,101979.90
2018-12-27T18:40:47.255Z,101977.72
2018-12-27T18:43:17.685Z,101984.16
2018-12-27T18:45:56.282Z,101979.08
2018-12-27T18:48:27.085Z,101981.18
2018-12-27T18:51:00.548Z,101984.16
2018-12-27T18:53:30.924Z,101980.36
2018-12-27T18:56:04.641Z,101979.60
2018-12-27T18:58:35.752Z,101985.66
2018-12-27T19:01:28.905Z,101980.89
2018-12-27T19:03:59.388Z,101980.88
2018-12-27T19:06:29.910Z,101984.36
2018-12-27T19:09:00.394Z,101990.88
2018-12-27T19:12:24.744Z,101986.23
2018-12-27T19:15:01.448Z,101987.45
2018-12-27T19:17:52.540Z,101986.77
2018-12-27T19:20:23.007Z,101989.70
2018-12-27T19:23:24.522Z,101989.70
2018-12-27T19:25:54.878Z,101997.08
2018-12-27T19:28:26.635Z,102001.70
2018-12-27T19:30:57.457Z,102005.94
2018-12-27T19:33:31.809Z,101998.13
2018-12-27T19:36:02.177Z,101997.20
2018-12-27T19:38:32.410Z,101990.73
2018-12-27T19:41:02.778Z,101993.31
2018-12-27T19:43:33.591Z,101996.77
2018-12-27T19:46:04.156Z,101985.05
2018-12-27T19:48:34.558Z,101982.73
2018-12-27T19:51:05.393Z,101983.53
2018-12-27T19:53:36.179Z,101977.08
2018-12-27T19:56:06.949Z,101973.97
2018-12-27T19:58:38.180Z,101969.28
2018-12-27T20:01:08.826Z,101973.16
2018-12-27T20:03:39.659Z,101979.89
2018-12-27T20:06:12.156Z,101991.42
2018-12-27T20:08:44.031Z,101989.62
2018-12-27T20:11:15.657Z,101996.86
2018-12-27T20:13:46.332Z,101985.67
2018-12-27T20:16:17.132Z,101988.66
2018-12-27T20:18:47.596Z,101993.81
2018-12-27T20:21:17.903Z,101995.92
2018-12-27T20:23:48.353Z,101999.72
2018-12-27T20:26:19.212Z,101991.16
2018-12-27T20:28:49.728Z,101982.59
2018-12-27T20:31:20.938Z,101982.08
2018-12-27T20:33:52.185Z,101979.09
2018-12-27T20:36:23.060Z,101973.13
2018-12-27T20:38:53.698Z,101967.20
2018-12-27T20:41:24.236Z,101969.27
2018-12-27T20:43:55.031Z,101972.31
2018-12-27T20:46:25.889Z,101976.59
2018-12-27T20:48:58.028Z,101981.73
2018-12-27T20:51:28.689Z,101979.16
2018-12-27T20:53:59.376Z,101975.36
2018-12-27T20:56:33.152Z,101968.48
2018-12-27T20:59:32.653Z,101970.73
2018-12-27T21:02:03.398Z,101981.39
2018-12-27T21:04:34.063Z,101993.86
2018-12-27T21:07:04.505Z,102001.01
2018-12-27T21:09:35.360Z,101994.88
2018-12-27T21:12:06.301Z,101988.98
2018-12-27T21:14:36.897Z,101985.06
2018-12-27T21:17:07.698Z,101989.73
2018-12-27T21:19:38.504Z,101992.78
2018-12-27T21:22:09.048Z,101990.67
2018-12-27T21:24:39.628Z,101983.77
2018-12-27T21:27:13.155Z,101986.41
2018-12-27T21:29:43.747Z,101989.73
2018-12-27T21:32:14.645Z,101987.69
2018-12-27T21:34:45.064Z,101992.31
2018-12-27T21:37:15.669Z,101989.67
2018-12-27T21:39:46.220Z,101982.81
2018-12-27T21:42:17.093Z,101983.63
2018-12-27T21:44:47.697Z,101988.22
2018-12-27T21:47:18.249Z,101985.64
2018-12-27T21:49:48.869Z,101991.12
2018-12-27T21:52:28.243Z,101986.37
2018-12-27T21:55:13.991Z,101985.56
2018-12-27T21:57:50.300Z,101979.94
2018-12-27T22:00:32.288Z,101986.92
2018-12-27T22:03:02.794Z,101980.44
2018-12-27T22:05:33.724Z,101983.83
2018-12-27T22:08:04.891Z,101983.00
2018-12-27T22:10:35.493Z,101986.05
2018-12-27T22:13:06.125Z,101988.06
2018-12-27T22:15:36.744Z,101987.20
2018-12-27T22:18:07.234Z,101984.20
2018-12-27T22:20:37.813Z,101984.48
2018-12-27T22:23:08.416Z,101994.80
2018-12-27T22:25:39.050Z,101996.93
2018-12-27T22:28:09.666Z,101994.78
2018-12-27T22:30:40.207Z,102000.73
2018-12-27T22:33:11.029Z,102010.95
2018-12-27T22:35:41.766Z,102012.98
2018-12-27T22:38:12.376Z,102010.38
2018-12-27T22:40:43.128Z,102012.89
2018-12-27T22:43:13.683Z,102013.28
2018-12-27T22:45:44.326Z,102018.84
2018-12-27T22:48:15.169Z,102020.94
2018-12-27T22:50:46.024Z,102014.01
2018-12-27T22:53:16.758Z,102016.17
2018-12-27T22:56:06.283Z,102014.83
2018-12-27T22:58:36.707Z,102016.19
2018-12-27T23:01:07.843Z,102009.27
2018-12-27T23:03:38.301Z,102009.73
2018-12-27T23:06:08.893Z,102008.53
2018-12-27T23:08:43.042Z,101999.20
2018-12-27T23:11:11.311Z,102000.91
2018-12-27T23:13:41.672Z,101995.91
2018-12-27T23:16:12.148Z,101995.81
2018-12-27T23:18:42.563Z,101997.12
2018-12-27T23:21:12.982Z,102005.17
2018-12-27T23:23:43.429Z,102007.33
2018-12-27T23:26:13.807Z,102002.25
2018-12-27T23:28:44.069Z,102007.17
2018-12-27T23:31:14.752Z,101999.78
2018-12-27T23:33:45.191Z,102004.20
2018-12-27T23:36:15.664Z,102001.53
2018-12-27T23:38:50.249Z,102005.33
2018-12-27T23:41:18.008Z,102009.08
2018-12-27T23:43:48.287Z,102002.59
2018-12-27T23:46:18.750Z,101993.27
2018-12-27T23:48:49.721Z,101993.34
2018-12-27T23:51:20.463Z,102001.53
2018-12-27T23:53:50.855Z,102002.32
2018-12-27T23:56:21.287Z,102003.06
2018-12-27T23:58:51.578Z,102001.38
